Terminal Aerodrome Forecast
Issued by NWS

Home | Current Version | Previous Version | Graphics & Text | Print | Product List | Glossary On
Versions: 1 2 3 4 5 6 7 8 9 10 11 12 13 14 15 16 17 18 19 20 21 22
611
FTUS43 KICT 190520
TAFCNU
TAF
KCNU 190520Z 1906/2006 17007KT P6SM FEW030
      TEMPO 1909/1911 5SM BR
     FM191200 17008KT 4SM BR OVC008
     FM191700 17010KT P6SM OVC014=

USA.gov is the U.S. government's official web portal to all federal, state and local government web resources and services.